sensor_id;sensor_type;location;lat;lon;timestamp;P1;durP1;ratioP1;P2;durP2;ratioP2
21206;SDS011;10761;48.532;8.026;2024-01-25T00:00:54;11.52;;;2.42;;
21206;SDS011;10761;48.532;8.026;2024-01-25T00:03:19;13.10;;;2.67;;
21206;SDS011;10761;48.532;8.026;2024-01-25T00:05:45;11.77;;;2.55;;
21206;SDS011;10761;48.532;8.026;2024-01-25T00:08:10;9.88;;;1.92;;
21206;SDS011;10761;48.532;8.026;2024-01-25T00:10:36;14.88;;;2.58;;
21206;SDS011;10761;48.532;8.026;2024-01-25T00:13:01;9.95;;;2.00;;
21206;SDS011;10761;48.532;8.026;2024-01-25T00:15:27;13.15;;;2.60;;
21206;SDS011;10761;48.532;8.026;2024-01-25T00:17:52;13.57;;;2.50;;
21206;SDS011;10761;48.532;8.026;2024-01-25T00:20:18;13.48;;;2.25;;
21206;SDS011;10761;48.532;8.026;2024-01-25T00:22:44;7.38;;;2.35;;
21206;SDS011;10761;48.532;8.026;2024-01-25T00:25:10;11.30;;;2.45;;
21206;SDS011;10761;48.532;8.026;2024-01-25T00:27:35;9.43;;;2.22;;
21206;SDS011;10761;48.532;8.026;2024-01-25T00:30:01;10.40;;;2.28;;
21206;SDS011;10761;48.532;8.026;2024-01-25T00:32:27;16.50;;;2.60;;
21206;SDS011;10761;48.532;8.026;2024-01-25T00:34:52;15.30;;;2.40;;
21206;SDS011;10761;48.532;8.026;2024-01-25T00:37:18;11.77;;;2.38;;
21206;SDS011;10761;48.532;8.026;2024-01-25T00:39:44;11.70;;;2.60;;
21206;SDS011;10761;48.532;8.026;2024-01-25T00:42:11;11.13;;;2.33;;
21206;SDS011;10761;48.532;8.026;2024-01-25T00:44:39;7.75;;;2.17;;
21206;SDS011;10761;48.532;8.026;2024-01-25T00:47:05;7.47;;;2.17;;
21206;SDS011;10761;48.532;8.026;2024-01-25T00:49:31;11.98;;;1.90;;
21206;SDS011;10761;48.532;8.026;2024-01-25T00:51:59;7.75;;;2.05;;
21206;SDS011;10761;48.532;8.026;2024-01-25T00:54:27;11.32;;;2.28;;
21206;SDS011;10761;48.532;8.026;2024-01-25T00:56:53;7.03;;;2.33;;
21206;SDS011;10761;48.532;8.026;2024-01-25T00:59:19;7.97;;;2.13;;
21206;SDS011;10761;48.532;8.026;2024-01-25T01:01:48;7.93;;;2.33;;
21206;SDS011;10761;48.532;8.026;2024-01-25T01:04:15;6.40;;;1.90;;
21206;SDS011;10761;48.532;8.026;2024-01-25T01:06:41;10.90;;;2.50;;
21206;SDS011;10761;48.532;8.026;2024-01-25T01:09:06;8.32;;;1.98;;
21206;SDS011;10761;48.532;8.026;2024-01-25T01:11:32;11.98;;;2.40;;
21206;SDS011;10761;48.532;8.026;2024-01-25T01:13:58;12.48;;;2.40;;
21206;SDS011;10761;48.532;8.026;2024-01-25T01:16:24;10.93;;;2.42;;
21206;SDS011;10761;48.532;8.026;2024-01-25T01:18:49;10.57;;;2.20;;
21206;SDS011;10761;48.532;8.026;2024-01-25T01:21:15;9.63;;;1.90;;
21206;SDS011;10761;48.532;8.026;2024-01-25T01:23:40;7.10;;;1.95;;
21206;SDS011;10761;48.532;8.026;2024-01-25T01:26:06;7.78;;;2.03;;
21206;SDS011;10761;48.532;8.026;2024-01-25T01:28:32;7.78;;;2.03;;
21206;SDS011;10761;48.532;8.026;2024-01-25T01:30:58;8.18;;;1.80;;
21206;SDS011;10761;48.532;8.026;2024-01-25T01:33:23;7.30;;;1.73;;
21206;SDS011;10761;48.532;8.026;2024-01-25T01:35:49;9.52;;;1.73;;
21206;SDS011;10761;48.532;8.026;2024-01-25T01:38:14;7.78;;;1.80;;
21206;SDS011;10761;48.532;8.026;2024-01-25T01:40:40;8.70;;;1.85;;
21206;SDS011;10761;48.532;8.026;2024-01-25T01:43:05;9.13;;;2.25;;
21206;SDS011;10761;48.532;8.026;2024-01-25T01:45:31;8.65;;;1.90;;
21206;SDS011;10761;48.532;8.026;2024-01-25T01:47:57;11.13;;;2.15;;
21206;SDS011;10761;48.532;8.026;2024-01-25T01:50:24;8.15;;;2.00;;
21206;SDS011;10761;48.532;8.026;2024-01-25T01:52:50;10.30;;;2.22;;
21206;SDS011;10761;48.532;8.026;2024-01-25T01:55:16;9.27;;;2.03;;
21206;SDS011;10761;48.532;8.026;2024-01-25T01:57:42;8.18;;;2.00;;
21206;SDS011;10761;48.532;8.026;2024-01-25T02:00:09;9.32;;;1.83;;
21206;SDS011;10761;48.532;8.026;2024-01-25T02:02:35;9.60;;;1.90;;
21206;SDS011;10761;48.532;8.026;2024-01-25T02:05:01;9.85;;;2.05;;
21206;SDS011;10761;48.532;8.026;2024-01-25T02:07:27;11.05;;;2.00;;
21206;SDS011;10761;48.532;8.026;2024-01-25T02:09:53;7.95;;;1.70;;
21206;SDS011;10761;48.532;8.026;2024-01-25T02:12:19;9.98;;;2.08;;
21206;SDS011;10761;48.532;8.026;2024-01-25T02:14:45;9.60;;;2.15;;
21206;SDS011;10761;48.532;8.026;2024-01-25T02:17:10;8.50;;;1.95;;
21206;SDS011;10761;48.532;8.026;2024-01-25T02:19:36;12.27;;;2.30;;
21206;SDS011;10761;48.532;8.026;2024-01-25T02:22:01;9.68;;;2.33;;
21206;SDS011;10761;48.532;8.026;2024-01-25T02:24:29;11.43;;;2.40;;
21206;SDS011;10761;48.532;8.026;2024-01-25T02:26:55;9.77;;;2.30;;
21206;SDS011;10761;48.532;8.026;2024-01-25T02:29:21;9.38;;;2.13;;
21206;SDS011;10761;48.532;8.026;2024-01-25T02:31:46;9.90;;;2.60;;
21206;SDS011;10761;48.532;8.026;2024-01-25T02:34:12;9.90;;;2.58;;
21206;SDS011;10761;48.532;8.026;2024-01-25T02:36:37;12.50;;;2.72;;
21206;SDS011;10761;48.532;8.026;2024-01-25T02:39:03;13.93;;;3.15;;
21206;SDS011;10761;48.532;8.026;2024-01-25T02:41:29;14.50;;;2.92;;
21206;SDS011;10761;48.532;8.026;2024-01-25T02:43:56;16.38;;;2.92;;
21206;SDS011;10761;48.532;8.026;2024-01-25T02:46:21;11.77;;;3.13;;
21206;SDS011;10761;48.532;8.026;2024-01-25T02:48:47;27.52;;;5.25;;
21206;SDS011;10761;48.532;8.026;2024-01-25T02:51:13;20.40;;;4.10;;
21206;SDS011;10761;48.532;8.026;2024-01-25T02:53:39;26.17;;;4.57;;
21206;SDS011;10761;48.532;8.026;2024-01-25T02:56:05;22.10;;;3.25;;
21206;SDS011;10761;48.532;8.026;2024-01-25T02:58:31;20.67;;;3.53;;
21206;SDS011;10761;48.532;8.026;2024-01-25T03:00:56;18.58;;;3.70;;
21206;SDS011;10761;48.532;8.026;2024-01-25T03:03:22;27.50;;;3.95;;
21206;SDS011;10761;48.532;8.026;2024-01-25T03:05:48;19.70;;;3.85;;
21206;SDS011;10761;48.532;8.026;2024-01-25T03:08:14;18.90;;;3.30;;
21206;SDS011;10761;48.532;8.026;2024-01-25T03:10:40;27.17;;;4.53;;
21206;SDS011;10761;48.532;8.026;2024-01-25T03:13:05;21.55;;;3.40;;
21206;SDS011;10761;48.532;8.026;2024-01-25T03:15:31;22.67;;;3.97;;
21206;SDS011;10761;48.532;8.026;2024-01-25T03:17:57;25.20;;;4.88;;
21206;SDS011;10761;48.532;8.026;2024-01-25T03:20:22;21.02;;;3.42;;
21206;SDS011;10761;48.532;8.026;2024-01-25T03:22:48;19.30;;;3.03;;
21206;SDS011;10761;48.532;8.026;2024-01-25T03:25:14;20.40;;;3.22;;
21206;SDS011;10761;48.532;8.026;2024-01-25T03:27:39;20.92;;;3.00;;
21206;SDS011;10761;48.532;8.026;2024-01-25T03:30:05;18.08;;;3.25;;
21206;SDS011;10761;48.532;8.026;2024-01-25T03:32:31;15.23;;;2.85;;
21206;SDS011;10761;48.532;8.026;2024-01-25T03:34:58;13.15;;;3.15;;
21206;SDS011;10761;48.532;8.026;2024-01-25T03:37:23;18.13;;;3.45;;
21206;SDS011;10761;48.532;8.026;2024-01-25T03:39:49;15.98;;;2.70;;
21206;SDS011;10761;48.532;8.026;2024-01-25T03:42:14;13.63;;;2.47;;
21206;SDS011;10761;48.532;8.026;2024-01-25T03:44:40;17.73;;;3.10;;
21206;SDS011;10761;48.532;8.026;2024-01-25T03:47:07;17.52;;;2.78;;
21206;SDS011;10761;48.532;8.026;2024-01-25T03:49:33;13.40;;;2.65;;
21206;SDS011;10761;48.532;8.026;2024-01-25T03:51:58;12.00;;;3.13;;
21206;SDS011;10761;48.532;8.026;2024-01-25T03:54:24;15.68;;;3.00;;
21206;SDS011;10761;48.532;8.026;2024-01-25T03:56:49;19.05;;;3.13;;
21206;SDS011;10761;48.532;8.026;2024-01-25T03:59:15;19.33;;;3.22;;
21206;SDS011;10761;48.532;8.026;2024-01-25T04:01:44;20.55;;;4.20;;
21206;SDS011;10761;48.532;8.026;2024-01-25T04:04:09;14.23;;;3.08;;
21206;SDS011;10761;48.532;8.026;2024-01-25T04:06:37;16.05;;;2.90;;
21206;SDS011;10761;48.532;8.026;2024-01-25T04:09:04;17.88;;;2.95;;
21206;SDS011;10761;48.532;8.026;2024-01-25T04:11:30;13.13;;;2.80;;
21206;SDS011;10761;48.532;8.026;2024-01-25T04:13:55;15.90;;;2.92;;
21206;SDS011;10761;48.532;8.026;2024-01-25T04:16:21;13.13;;;2.53;;
21206;SDS011;10761;48.532;8.026;2024-01-25T04:18:46;18.48;;;3.00;;
21206;SDS011;10761;48.532;8.026;2024-01-25T04:21:12;12.93;;;3.00;;
21206;SDS011;10761;48.532;8.026;2024-01-25T04:23:37;20.80;;;3.25;;
21206;SDS011;10761;48.532;8.026;2024-01-25T04:26:03;10.82;;;2.38;;
21206;SDS011;10761;48.532;8.026;2024-01-25T04:28:28;13.27;;;2.42;;
21206;SDS011;10761;48.532;8.026;2024-01-25T04:30:54;9.02;;;2.33;;
21206;SDS011;10761;48.532;8.026;2024-01-25T04:33:20;15.82;;;3.03;;
21206;SDS011;10761;48.532;8.026;2024-01-25T04:35:45;17.33;;;2.85;;
21206;SDS011;10761;48.532;8.026;2024-01-25T04:38:11;10.82;;;2.35;;
21206;SDS011;10761;48.532;8.026;2024-01-25T04:40:37;12.98;;;2.30;;
21206;SDS011;10761;48.532;8.026;2024-01-25T04:43:02;10.10;;;2.40;;
21206;SDS011;10761;48.532;8.026;2024-01-25T04:45:28;18.02;;;2.53;;
21206;SDS011;10761;48.532;8.026;2024-01-25T04:47:53;18.08;;;2.70;;
21206;SDS011;10761;48.532;8.026;2024-01-25T04:50:19;12.50;;;3.15;;
21206;SDS011;10761;48.532;8.026;2024-01-25T04:52:45;11.27;;;2.15;;
21206;SDS011;10761;48.532;8.026;2024-01-25T04:55:10;16.48;;;2.30;;
21206;SDS011;10761;48.532;8.026;2024-01-25T04:57:36;11.15;;;2.60;;
21206;SDS011;10761;48.532;8.026;2024-01-25T05:00:01;12.85;;;2.50;;
21206;SDS011;10761;48.532;8.026;2024-01-25T05:02:27;17.02;;;2.70;;
21206;SDS011;10761;48.532;8.026;2024-01-25T05:04:53;11.77;;;2.13;;
21206;SDS011;10761;48.532;8.026;2024-01-25T05:07:19;12.80;;;2.58;;
21206;SDS011;10761;48.532;8.026;2024-01-25T05:09:44;12.32;;;1.80;;
21206;SDS011;10761;48.532;8.026;2024-01-25T05:12:10;10.73;;;2.22;;
21206;SDS011;10761;48.532;8.026;2024-01-25T05:14:35;11.48;;;2.05;;
21206;SDS011;10761;48.532;8.026;2024-01-25T05:17:01;11.38;;;1.85;;
21206;SDS011;10761;48.532;8.026;2024-01-25T05:19:26;12.27;;;2.35;;
21206;SDS011;10761;48.532;8.026;2024-01-25T05:21:52;13.95;;;2.63;;
21206;SDS011;10761;48.532;8.026;2024-01-25T05:24:18;14.45;;;2.40;;
21206;SDS011;10761;48.532;8.026;2024-01-25T05:26:43;13.32;;;2.30;;
21206;SDS011;10761;48.532;8.026;2024-01-25T05:29:09;15.05;;;2.60;;
21206;SDS011;10761;48.532;8.026;2024-01-25T05:31:34;15.38;;;2.35;;
21206;SDS011;10761;48.532;8.026;2024-01-25T05:34:00;11.70;;;2.50;;
21206;SDS011;10761;48.532;8.026;2024-01-25T05:36:25;13.13;;;2.38;;
21206;SDS011;10761;48.532;8.026;2024-01-25T05:38:51;18.77;;;3.03;;
21206;SDS011;10761;48.532;8.026;2024-01-25T05:41:16;11.68;;;2.38;;
21206;SDS011;10761;48.532;8.026;2024-01-25T05:43:42;15.23;;;2.58;;
21206;SDS011;10761;48.532;8.026;2024-01-25T05:46:07;18.27;;;2.97;;
21206;SDS011;10761;48.532;8.026;2024-01-25T05:48:34;13.15;;;2.25;;
21206;SDS011;10761;48.532;8.026;2024-01-25T05:51:00;11.15;;;2.28;;
21206;SDS011;10761;48.532;8.026;2024-01-25T05:53:25;13.85;;;2.33;;
21206;SDS011;10761;48.532;8.026;2024-01-25T05:55:51;12.65;;;2.78;;
21206;SDS011;10761;48.532;8.026;2024-01-25T05:58:17;12.60;;;2.20;;
21206;SDS011;10761;48.532;8.026;2024-01-25T06:00:42;14.75;;;2.40;;
21206;SDS011;10761;48.532;8.026;2024-01-25T06:03:08;15.25;;;2.70;;
21206;SDS011;10761;48.532;8.026;2024-01-25T06:05:34;11.38;;;2.00;;
21206;SDS011;10761;48.532;8.026;2024-01-25T06:07:59;15.95;;;2.53;;
21206;SDS011;10761;48.532;8.026;2024-01-25T06:10:25;11.45;;;2.25;;
21206;SDS011;10761;48.532;8.026;2024-01-25T06:12:50;10.98;;;2.42;;
21206;SDS011;10761;48.532;8.026;2024-01-25T06:15:16;13.27;;;2.30;;
21206;SDS011;10761;48.532;8.026;2024-01-25T06:17:41;11.70;;;2.78;;
21206;SDS011;10761;48.532;8.026;2024-01-25T06:20:07;11.65;;;2.25;;
21206;SDS011;10761;48.532;8.026;2024-01-25T06:22:34;11.50;;;2.20;;
21206;SDS011;10761;48.532;8.026;2024-01-25T06:24:59;9.32;;;1.92;;
21206;SDS011;10761;48.532;8.026;2024-01-25T06:27:25;12.25;;;2.13;;
21206;SDS011;10761;48.532;8.026;2024-01-25T06:29:50;10.60;;;2.00;;
21206;SDS011;10761;48.532;8.026;2024-01-25T06:32:16;13.57;;;2.58;;
21206;SDS011;10761;48.532;8.026;2024-01-25T06:34:41;10.30;;;1.83;;
21206;SDS011;10761;48.532;8.026;2024-01-25T06:37:07;10.88;;;1.90;;
21206;SDS011;10761;48.532;8.026;2024-01-25T06:39:32;11.52;;;2.40;;
21206;SDS011;10761;48.532;8.026;2024-01-25T06:41:59;10.25;;;2.20;;
21206;SDS011;10761;48.532;8.026;2024-01-25T06:44:24;11.30;;;2.05;;
21206;SDS011;10761;48.532;8.026;2024-01-25T06:46:50;11.70;;;2.33;;
21206;SDS011;10761;48.532;8.026;2024-01-25T06:49:16;12.55;;;2.80;;
21206;SDS011;10761;48.532;8.026;2024-01-25T06:51:41;9.45;;;2.10;;
21206;SDS011;10761;48.532;8.026;2024-01-25T06:54:07;12.98;;;2.40;;
21206;SDS011;10761;48.532;8.026;2024-01-25T06:56:33;14.57;;;2.30;;
21206;SDS011;10761;48.532;8.026;2024-01-25T06:58:59;8.40;;;1.90;;
21206;SDS011;10761;48.532;8.026;2024-01-25T07:01:25;10.45;;;1.70;;
21206;SDS011;10761;48.532;8.026;2024-01-25T07:03:54;9.93;;;1.65;;
21206;SDS011;10761;48.532;8.026;2024-01-25T07:06:19;8.05;;;1.58;;
21206;SDS011;10761;48.532;8.026;2024-01-25T07:08:45;6.97;;;1.55;;
21206;SDS011;10761;48.532;8.026;2024-01-25T07:11:11;7.05;;;1.50;;
21206;SDS011;10761;48.532;8.026;2024-01-25T07:13:37;7.75;;;1.60;;
21206;SDS011;10761;48.532;8.026;2024-01-25T07:16:02;7.20;;;1.23;;
21206;SDS011;10761;48.532;8.026;2024-01-25T07:18:28;9.20;;;1.45;;
21206;SDS011;10761;48.532;8.026;2024-01-25T07:20:54;6.70;;;1.60;;
21206;SDS011;10761;48.532;8.026;2024-01-25T07:23:20;5.18;;;1.45;;
21206;SDS011;10761;48.532;8.026;2024-01-25T07:25:46;4.70;;;1.45;;
21206;SDS011;10761;48.532;8.026;2024-01-25T07:28:12;6.35;;;1.42;;
21206;SDS011;10761;48.532;8.026;2024-01-25T07:30:37;6.38;;;1.58;;
21206;SDS011;10761;48.532;8.026;2024-01-25T07:33:03;7.88;;;1.83;;
21206;SDS011;10761;48.532;8.026;2024-01-25T07:35:28;8.50;;;1.83;;
21206;SDS011;10761;48.532;8.026;2024-01-25T07:37:54;8.90;;;1.80;;
21206;SDS011;10761;48.532;8.026;2024-01-25T07:40:19;10.60;;;1.40;;
21206;SDS011;10761;48.532;8.026;2024-01-25T07:42:48;5.88;;;1.33;;
21206;SDS011;10761;48.532;8.026;2024-01-25T07:45:14;6.88;;;1.33;;
21206;SDS011;10761;48.532;8.026;2024-01-25T07:47:43;4.20;;;1.20;;
21206;SDS011;10761;48.532;8.026;2024-01-25T07:50:09;9.70;;;1.50;;
21206;SDS011;10761;48.532;8.026;2024-01-25T07:52:35;3.13;;;1.30;;
21206;SDS011;10761;48.532;8.026;2024-01-25T07:55:00;9.05;;;1.55;;
21206;SDS011;10761;48.532;8.026;2024-01-25T07:57:26;5.60;;;1.40;;
21206;SDS011;10761;48.532;8.026;2024-01-25T07:59:51;6.20;;;1.80;;
21206;SDS011;10761;48.532;8.026;2024-01-25T08:02:17;6.00;;;1.58;;
21206;SDS011;10761;48.532;8.026;2024-01-25T08:04:43;4.40;;;1.50;;
21206;SDS011;10761;48.532;8.026;2024-01-25T08:07:08;5.07;;;1.90;;
21206;SDS011;10761;48.532;8.026;2024-01-25T08:09:34;6.38;;;2.00;;
21206;SDS011;10761;48.532;8.026;2024-01-25T08:11:59;8.00;;;1.90;;
21206;SDS011;10761;48.532;8.026;2024-01-25T08:14:25;5.43;;;1.50;;
21206;SDS011;10761;48.532;8.026;2024-01-25T08:16:50;6.82;;;1.88;;
21206;SDS011;10761;48.532;8.026;2024-01-25T08:19:16;5.47;;;1.50;;
21206;SDS011;10761;48.532;8.026;2024-01-25T08:21:42;6.93;;;1.83;;
21206;SDS011;10761;48.532;8.026;2024-01-25T08:24:07;6.13;;;1.30;;
21206;SDS011;10761;48.532;8.026;2024-01-25T08:26:33;6.30;;;1.98;;
21206;SDS011;10761;48.532;8.026;2024-01-25T08:28:59;6.18;;;1.80;;
21206;SDS011;10761;48.532;8.026;2024-01-25T08:31:26;6.35;;;1.55;;
21206;SDS011;10761;48.532;8.026;2024-01-25T08:33:51;8.18;;;1.90;;
21206;SDS011;10761;48.532;8.026;2024-01-25T08:36:17;6.88;;;1.90;;
21206;SDS011;10761;48.532;8.026;2024-01-25T08:38:43;4.32;;;2.10;;
21206;SDS011;10761;48.532;8.026;2024-01-25T08:41:09;3.97;;;1.63;;
21206;SDS011;10761;48.532;8.026;2024-01-25T08:43:36;5.00;;;1.67;;
21206;SDS011;10761;48.532;8.026;2024-01-25T08:46:02;6.00;;;1.55;;
21206;SDS011;10761;48.532;8.026;2024-01-25T08:48:28;5.32;;;1.23;;
21206;SDS011;10761;48.532;8.026;2024-01-25T08:50:53;6.50;;;1.30;;
21206;SDS011;10761;48.532;8.026;2024-01-25T08:53:20;4.20;;;1.50;;
21206;SDS011;10761;48.532;8.026;2024-01-25T08:55:52;7.30;;;1.63;;
21206;SDS011;10761;48.532;8.026;2024-01-25T08:58:20;5.03;;;1.17;;
21206;SDS011;10761;48.532;8.026;2024-01-25T09:00:46;4.65;;;1.73;;
21206;SDS011;10761;48.532;8.026;2024-01-25T09:03:12;5.40;;;1.30;;
21206;SDS011;10761;48.532;8.026;2024-01-25T09:05:39;3.22;;;1.00;;
21206;SDS011;10761;48.532;8.026;2024-01-25T09:08:09;4.72;;;1.20;;
21206;SDS011;10761;48.532;8.026;2024-01-25T09:10:39;6.07;;;1.80;;
21206;SDS011;10761;48.532;8.026;2024-01-25T09:13:06;5.13;;;1.15;;
21206;SDS011;10761;48.532;8.026;2024-01-25T09:15:32;3.47;;;0.80;;
21206;SDS011;10761;48.532;8.026;2024-01-25T09:17:57;3.15;;;1.00;;
21206;SDS011;10761;48.532;8.026;2024-01-25T09:20:23;3.05;;;1.17;;
21206;SDS011;10761;48.532;8.026;2024-01-25T09:22:48;3.40;;;1.00;;
21206;SDS011;10761;48.532;8.026;2024-01-25T09:25:14;2.88;;;0.82;;
21206;SDS011;10761;48.532;8.026;2024-01-25T09:27:40;4.30;;;1.10;;
21206;SDS011;10761;48.532;8.026;2024-01-25T09:30:06;2.55;;;1.00;;
21206;SDS011;10761;48.532;8.026;2024-01-25T09:32:32;2.50;;;0.90;;
21206;SDS011;10761;48.532;8.026;2024-01-25T09:34:58;3.78;;;1.02;;
21206;SDS011;10761;48.532;8.026;2024-01-25T09:37:23;4.88;;;1.20;;
21206;SDS011;10761;48.532;8.026;2024-01-25T09:39:49;2.20;;;0.80;;
21206;SDS011;10761;48.532;8.026;2024-01-25T09:42:16;3.42;;;1.00;;
21206;SDS011;10761;48.532;8.026;2024-01-25T09:44:43;3.38;;;0.93;;
21206;SDS011;10761;48.532;8.026;2024-01-25T09:47:09;2.78;;;1.08;;
21206;SDS011;10761;48.532;8.026;2024-01-25T09:49:35;3.22;;;1.10;;
21206;SDS011;10761;48.532;8.026;2024-01-25T09:52:04;3.00;;;1.00;;
21206;SDS011;10761;48.532;8.026;2024-01-25T09:54:31;3.05;;;1.00;;
21206;SDS011;10761;48.532;8.026;2024-01-25T09:57:00;1.77;;;0.80;;
21206;SDS011;10761;48.532;8.026;2024-01-25T09:59:30;2.80;;;0.85;;
21206;SDS011;10761;48.532;8.026;2024-01-25T10:01:55;4.28;;;1.83;;
21206;SDS011;10761;48.532;8.026;2024-01-25T10:04:22;5.78;;;1.20;;
21206;SDS011;10761;48.532;8.026;2024-01-25T10:06:49;4.22;;;1.10;;
21206;SDS011;10761;48.532;8.026;2024-01-25T10:09:14;2.13;;;0.80;;
21206;SDS011;10761;48.532;8.026;2024-01-25T10:11:40;4.85;;;1.20;;
21206;SDS011;10761;48.532;8.026;2024-01-25T10:14:06;2.28;;;1.40;;
21206;SDS011;10761;48.532;8.026;2024-01-25T10:16:33;2.55;;;1.10;;
21206;SDS011;10761;48.532;8.026;2024-01-25T10:19:00;3.22;;;1.20;;
21206;SDS011;10761;48.532;8.026;2024-01-25T10:21:27;3.22;;;1.23;;
21206;SDS011;10761;48.532;8.026;2024-01-25T10:23:54;2.42;;;1.05;;
21206;SDS011;10761;48.532;8.026;2024-01-25T10:26:23;5.45;;;2.08;;
21206;SDS011;10761;48.532;8.026;2024-01-25T10:28:53;4.93;;;1.45;;
21206;SDS011;10761;48.532;8.026;2024-01-25T10:31:22;3.08;;;0.98;;
21206;SDS011;10761;48.532;8.026;2024-01-25T10:33:48;2.75;;;0.90;;
21206;SDS011;10761;48.532;8.026;2024-01-25T10:36:13;3.03;;;1.15;;
21206;SDS011;10761;48.532;8.026;2024-01-25T10:38:40;5.22;;;1.50;;
21206;SDS011;10761;48.532;8.026;2024-01-25T10:41:07;3.25;;;1.20;;
21206;SDS011;10761;48.532;8.026;2024-01-25T10:43:32;5.50;;;1.50;;
21206;SDS011;10761;48.532;8.026;2024-01-25T10:45:59;5.38;;;1.67;;
21206;SDS011;10761;48.532;8.026;2024-01-25T10:48:28;3.50;;;1.20;;
21206;SDS011;10761;48.532;8.026;2024-01-25T10:50:56;4.50;;;1.33;;
21206;SDS011;10761;48.532;8.026;2024-01-25T10:53:23;4.22;;;1.30;;
21206;SDS011;10761;48.532;8.026;2024-01-25T10:55:50;5.00;;;1.33;;
21206;SDS011;10761;48.532;8.026;2024-01-25T10:58:16;4.63;;;1.48;;
21206;SDS011;10761;48.532;8.026;2024-01-25T11:00:50;3.17;;;1.48;;
21206;SDS011;10761;48.532;8.026;2024-01-25T11:03:17;5.47;;;1.42;;
21206;SDS011;10761;48.532;8.026;2024-01-25T11:05:43;6.93;;;1.90;;
21206;SDS011;10761;48.532;8.026;2024-01-25T11:08:16;4.50;;;1.50;;
21206;SDS011;10761;48.532;8.026;2024-01-25T11:10:51;5.93;;;1.40;;
21206;SDS011;10761;48.532;8.026;2024-01-25T11:13:23;5.47;;;1.40;;
21206;SDS011;10761;48.532;8.026;2024-01-25T11:15:51;5.25;;;1.25;;
21206;SDS011;10761;48.532;8.026;2024-01-25T11:18:16;5.90;;;1.50;;
21206;SDS011;10761;48.532;8.026;2024-01-25T11:20:42;6.22;;;1.60;;
21206;SDS011;10761;48.532;8.026;2024-01-25T11:23:11;5.60;;;1.13;;
21206;SDS011;10761;48.532;8.026;2024-01-25T11:25:40;4.78;;;1.17;;
21206;SDS011;10761;48.532;8.026;2024-01-25T11:28:10;3.85;;;1.17;;
21206;SDS011;10761;48.532;8.026;2024-01-25T11:30:36;7.80;;;1.67;;
21206;SDS011;10761;48.532;8.026;2024-01-25T11:33:06;3.35;;;1.08;;
21206;SDS011;10761;48.532;8.026;2024-01-25T11:35:32;3.60;;;1.10;;
21206;SDS011;10761;48.532;8.026;2024-01-25T11:37:58;4.88;;;1.30;;
21206;SDS011;10761;48.532;8.026;2024-01-25T11:40:25;4.55;;;1.60;;
21206;SDS011;10761;48.532;8.026;2024-01-25T11:42:50;4.30;;;1.35;;
21206;SDS011;10761;48.532;8.026;2024-01-25T11:45:16;4.88;;;1.15;;
21206;SDS011;10761;48.532;8.026;2024-01-25T11:47:43;5.05;;;1.33;;
21206;SDS011;10761;48.532;8.026;2024-01-25T11:50:09;4.80;;;1.30;;
21206;SDS011;10761;48.532;8.026;2024-01-25T11:52:36;4.78;;;1.25;;
21206;SDS011;10761;48.532;8.026;2024-01-25T11:55:03;4.05;;;1.20;;
21206;SDS011;10761;48.532;8.026;2024-01-25T11:57:30;5.32;;;1.23;;
21206;SDS011;10761;48.532;8.026;2024-01-25T11:59:59;4.50;;;1.40;;
21206;SDS011;10761;48.532;8.026;2024-01-25T12:02:25;4.90;;;1.10;;
21206;SDS011;10761;48.532;8.026;2024-01-25T12:04:52;5.57;;;1.30;;
21206;SDS011;10761;48.532;8.026;2024-01-25T12:07:20;5.15;;;1.30;;
21206;SDS011;10761;48.532;8.026;2024-01-25T12:09:56;5.13;;;1.40;;
21206;SDS011;10761;48.532;8.026;2024-01-25T12:12:27;4.38;;;1.23;;
21206;SDS011;10761;48.532;8.026;2024-01-25T12:14:56;4.65;;;1.25;;
21206;SDS011;10761;48.532;8.026;2024-01-25T12:17:23;5.35;;;1.63;;
21206;SDS011;10761;48.532;8.026;2024-01-25T12:19:48;5.53;;;1.20;;
21206;SDS011;10761;48.532;8.026;2024-01-25T12:22:21;6.72;;;1.10;;
21206;SDS011;10761;48.532;8.026;2024-01-25T12:24:47;4.10;;;1.13;;
21206;SDS011;10761;48.532;8.026;2024-01-25T12:27:14;4.22;;;1.10;;
21206;SDS011;10761;48.532;8.026;2024-01-25T12:29:41;5.38;;;1.30;;
21206;SDS011;10761;48.532;8.026;2024-01-25T12:32:08;4.28;;;1.02;;
21206;SDS011;10761;48.532;8.026;2024-01-25T12:34:34;5.60;;;1.00;;
21206;SDS011;10761;48.532;8.026;2024-01-25T12:37:02;8.98;;;1.52;;
21206;SDS011;10761;48.532;8.026;2024-01-25T12:39:28;5.97;;;1.30;;
21206;SDS011;10761;48.532;8.026;2024-01-25T12:41:54;4.70;;;1.30;;
21206;SDS011;10761;48.532;8.026;2024-01-25T12:44:19;8.30;;;1.50;;
21206;SDS011;10761;48.532;8.026;2024-01-25T12:46:45;4.93;;;1.15;;
21206;SDS011;10761;48.532;8.026;2024-01-25T12:49:10;4.65;;;1.35;;
21206;SDS011;10761;48.532;8.026;2024-01-25T12:51:36;5.85;;;1.35;;
21206;SDS011;10761;48.532;8.026;2024-01-25T12:54:01;6.72;;;1.80;;
21206;SDS011;10761;48.532;8.026;2024-01-25T12:56:27;5.65;;;1.20;;
21206;SDS011;10761;48.532;8.026;2024-01-25T12:58:52;5.72;;;1.40;;
21206;SDS011;10761;48.532;8.026;2024-01-25T13:01:18;6.60;;;1.52;;
21206;SDS011;10761;48.532;8.026;2024-01-25T13:03:44;6.40;;;1.60;;
21206;SDS011;10761;48.532;8.026;2024-01-25T13:06:11;4.80;;;1.20;;
21206;SDS011;10761;48.532;8.026;2024-01-25T13:08:37;4.72;;;1.20;;
21206;SDS011;10761;48.532;8.026;2024-01-25T13:11:03;6.28;;;1.42;;
21206;SDS011;10761;48.532;8.026;2024-01-25T13:13:28;4.72;;;1.08;;
21206;SDS011;10761;48.532;8.026;2024-01-25T13:15:54;4.90;;;1.27;;
21206;SDS011;10761;48.532;8.026;2024-01-25T13:18:20;6.82;;;1.55;;
21206;SDS011;10761;48.532;8.026;2024-01-25T13:20:45;4.90;;;1.40;;
21206;SDS011;10761;48.532;8.026;2024-01-25T13:23:11;5.55;;;1.30;;
21206;SDS011;10761;48.532;8.026;2024-01-25T13:25:37;4.47;;;1.05;;
21206;SDS011;10761;48.532;8.026;2024-01-25T13:28:02;4.30;;;0.88;;
21206;SDS011;10761;48.532;8.026;2024-01-25T13:30:28;4.65;;;1.58;;
21206;SDS011;10761;48.532;8.026;2024-01-25T13:32:53;5.20;;;1.40;;
21206;SDS011;10761;48.532;8.026;2024-01-25T13:35:19;5.35;;;0.93;;
21206;SDS011;10761;48.532;8.026;2024-01-25T13:37:44;5.40;;;1.10;;
21206;SDS011;10761;48.532;8.026;2024-01-25T13:40:10;5.13;;;1.15;;
21206;SDS011;10761;48.532;8.026;2024-01-25T13:42:36;5.72;;;1.10;;
21206;SDS011;10761;48.532;8.026;2024-01-25T13:45:01;4.13;;;1.10;;
21206;SDS011;10761;48.532;8.026;2024-01-25T13:47:27;7.57;;;1.10;;
21206;SDS011;10761;48.532;8.026;2024-01-25T13:49:53;5.15;;;1.10;;
21206;SDS011;10761;48.532;8.026;2024-01-25T13:52:19;4.53;;;1.20;;
21206;SDS011;10761;48.532;8.026;2024-01-25T13:54:46;5.45;;;1.38;;
21206;SDS011;10761;48.532;8.026;2024-01-25T13:57:14;6.53;;;1.60;;
21206;SDS011;10761;48.532;8.026;2024-01-25T13:59:40;3.67;;;1.20;;
21206;SDS011;10761;48.532;8.026;2024-01-25T14:02:05;4.32;;;1.33;;
21206;SDS011;10761;48.532;8.026;2024-01-25T14:04:31;5.50;;;1.60;;
21206;SDS011;10761;48.532;8.026;2024-01-25T14:06:57;6.70;;;1.95;;
21206;SDS011;10761;48.532;8.026;2024-01-25T14:09:22;3.70;;;2.30;;
21206;SDS011;10761;48.532;8.026;2024-01-25T14:11:48;6.63;;;2.85;;
21206;SDS011;10761;48.532;8.026;2024-01-25T14:14:13;8.20;;;2.72;;
21206;SDS011;10761;48.532;8.026;2024-01-25T14:16:39;6.93;;;2.78;;
21206;SDS011;10761;48.532;8.026;2024-01-25T14:19:04;8.82;;;2.67;;
21206;SDS011;10761;48.532;8.026;2024-01-25T14:21:31;9.00;;;3.72;;
21206;SDS011;10761;48.532;8.026;2024-01-25T14:23:57;9.68;;;3.92;;
21206;SDS011;10761;48.532;8.026;2024-01-25T14:26:22;9.75;;;3.97;;
21206;SDS011;10761;48.532;8.026;2024-01-25T14:28:48;11.93;;;4.45;;
21206;SDS011;10761;48.532;8.026;2024-01-25T14:31:14;10.38;;;4.20;;
21206;SDS011;10761;48.532;8.026;2024-01-25T14:33:39;9.07;;;4.43;;
21206;SDS011;10761;48.532;8.026;2024-01-25T14:36:05;13.38;;;5.80;;